METAR Data
IDs: Format: Raw Decoded Include TAF

Data at: 0839 UTC 07 Apr 2020

KAPA 070753Z 20012KT 10SM SCT120 08/M08 A2994 RMK AO2 SLP093 T00831078

KAPA 070826Z 0708/0806 20012KT P6SM SCT120
  FM071400 20008KT P6SM FEW120 SCT220
  FM072000 30012G20KT P6SM FEW120 SCT220
  FM072300 34014KT P6SM SCT120 SCT200
  FM080300 22010KT P6SM FEW120 SCT200